sensor_id;sensor_type;location;lat;lon;timestamp;P1;durP1;ratioP1;P2;durP2;ratioP2
14247;SDS011;7208;49.826;6.004;2024-02-26T00:00:37;0.70;;;0.70;;
14247;SDS011;7208;49.826;6.004;2024-02-26T00:03:03;0.40;;;0.40;;
14247;SDS011;7208;49.826;6.004;2024-02-26T00:05:29;2.53;;;1.70;;
14247;SDS011;7208;49.826;6.004;2024-02-26T00:07:56;2.10;;;1.70;;
14247;SDS011;7208;49.826;6.004;2024-02-26T00:10:22;0.80;;;0.80;;
14247;SDS011;7208;49.826;6.004;2024-02-26T00:12:49;0.60;;;0.60;;
14247;SDS011;7208;49.826;6.004;2024-02-26T00:15:15;0.70;;;0.70;;
14247;SDS011;7208;49.826;6.004;2024-02-26T00:17:41;3.97;;;1.43;;
14247;SDS011;7208;49.826;6.004;2024-02-26T00:20:07;0.63;;;0.63;;
14247;SDS011;7208;49.826;6.004;2024-02-26T00:22:34;0.40;;;0.40;;
14247;SDS011;7208;49.826;6.004;2024-02-26T00:25:00;0.50;;;0.50;;
14247;SDS011;7208;49.826;6.004;2024-02-26T00:27:26;0.40;;;0.40;;
14247;SDS011;7208;49.826;6.004;2024-02-26T00:29:52;0.52;;;0.52;;
14247;SDS011;7208;49.826;6.004;2024-02-26T00:32:18;0.73;;;0.50;;
14247;SDS011;7208;49.826;6.004;2024-02-26T00:34:44;0.40;;;0.40;;
14247;SDS011;7208;49.826;6.004;2024-02-26T00:37:10;0.83;;;0.80;;
14247;SDS011;7208;49.826;6.004;2024-02-26T00:39:36;3.87;;;2.47;;
14247;SDS011;7208;49.826;6.004;2024-02-26T00:42:02;4.20;;;2.60;;
14247;SDS011;7208;49.826;6.004;2024-02-26T00:44:28;0.90;;;0.90;;
14247;SDS011;7208;49.826;6.004;2024-02-26T00:46:54;1.07;;;0.80;;
14247;SDS011;7208;49.826;6.004;2024-02-26T00:49:20;0.60;;;0.60;;
14247;SDS011;7208;49.826;6.004;2024-02-26T00:51:46;0.90;;;0.73;;
14247;SDS011;7208;49.826;6.004;2024-02-26T00:54:12;0.90;;;0.90;;
14247;SDS011;7208;49.826;6.004;2024-02-26T00:56:39;1.97;;;1.87;;
14247;SDS011;7208;49.826;6.004;2024-02-26T00:59:05;0.97;;;0.70;;
14247;SDS011;7208;49.826;6.004;2024-02-26T01:01:31;0.80;;;0.70;;
14247;SDS011;7208;49.826;6.004;2024-02-26T01:03:57;0.40;;;0.40;;
14247;SDS011;7208;49.826;6.004;2024-02-26T01:06:23;0.70;;;0.40;;
14247;SDS011;7208;49.826;6.004;2024-02-26T01:08:49;0.60;;;0.60;;
14247;SDS011;7208;49.826;6.004;2024-02-26T01:11:15;0.53;;;0.53;;
14247;SDS011;7208;49.826;6.004;2024-02-26T01:13:41;0.80;;;0.80;;
14247;SDS011;7208;49.826;6.004;2024-02-26T01:16:07;0.50;;;0.50;;
14247;SDS011;7208;49.826;6.004;2024-02-26T01:18:33;0.80;;;0.50;;
14247;SDS011;7208;49.826;6.004;2024-02-26T01:20:59;0.53;;;0.40;;
14247;SDS011;7208;49.826;6.004;2024-02-26T01:23:25;0.63;;;0.60;;
14247;SDS011;7208;49.826;6.004;2024-02-26T01:25:52;0.30;;;0.30;;
14247;SDS011;7208;49.826;6.004;2024-02-26T01:28:18;0.40;;;0.40;;
14247;SDS011;7208;49.826;6.004;2024-02-26T01:30:44;0.37;;;0.37;;
14247;SDS011;7208;49.826;6.004;2024-02-26T01:33:10;0.60;;;0.60;;
14247;SDS011;7208;49.826;6.004;2024-02-26T01:35:36;0.87;;;0.50;;
14247;SDS011;7208;49.826;6.004;2024-02-26T01:38:02;0.70;;;0.70;;
14247;SDS011;7208;49.826;6.004;2024-02-26T01:40:28;0.57;;;0.57;;
14247;SDS011;7208;49.826;6.004;2024-02-26T01:42:55;0.43;;;0.43;;
14247;SDS011;7208;49.826;6.004;2024-02-26T01:45:21;0.40;;;0.40;;
14247;SDS011;7208;49.826;6.004;2024-02-26T01:47:52;0.70;;;0.70;;
14247;SDS011;7208;49.826;6.004;2024-02-26T01:50:18;0.40;;;0.40;;
14247;SDS011;7208;49.826;6.004;2024-02-26T01:52:49;0.50;;;0.50;;
14247;SDS011;7208;49.826;6.004;2024-02-26T01:55:15;0.50;;;0.50;;
14247;SDS011;7208;49.826;6.004;2024-02-26T01:57:42;0.97;;;0.47;;
14247;SDS011;7208;49.826;6.004;2024-02-26T02:00:09;0.50;;;0.50;;
14247;SDS011;7208;49.826;6.004;2024-02-26T02:02:36;0.47;;;0.47;;
14247;SDS011;7208;49.826;6.004;2024-02-26T02:05:03;0.63;;;0.50;;
14247;SDS011;7208;49.826;6.004;2024-02-26T02:07:30;0.30;;;0.30;;
14247;SDS011;7208;49.826;6.004;2024-02-26T02:09:56;0.70;;;0.50;;
14247;SDS011;7208;49.826;6.004;2024-02-26T02:12:23;0.50;;;0.50;;
14247;SDS011;7208;49.826;6.004;2024-02-26T02:14:49;0.50;;;0.50;;
14247;SDS011;7208;49.826;6.004;2024-02-26T02:17:15;0.73;;;0.50;;
14247;SDS011;7208;49.826;6.004;2024-02-26T02:19:41;2.47;;;0.50;;
14247;SDS011;7208;49.826;6.004;2024-02-26T02:22:07;0.60;;;0.60;;
14247;SDS011;7208;49.826;6.004;2024-02-26T02:24:33;0.40;;;0.40;;
14247;SDS011;7208;49.826;6.004;2024-02-26T02:26:59;0.47;;;0.47;;
14247;SDS011;7208;49.826;6.004;2024-02-26T02:29:25;0.80;;;0.60;;
14247;SDS011;7208;49.826;6.004;2024-02-26T02:31:52;0.50;;;0.50;;
14247;SDS011;7208;49.826;6.004;2024-02-26T02:34:19;0.73;;;0.50;;
14247;SDS011;7208;49.826;6.004;2024-02-26T02:36:52;0.60;;;0.60;;
14247;SDS011;7208;49.826;6.004;2024-02-26T02:39:18;1.17;;;0.70;;
14247;SDS011;7208;49.826;6.004;2024-02-26T02:41:44;0.50;;;0.50;;
14247;SDS011;7208;49.826;6.004;2024-02-26T02:44:10;0.50;;;0.50;;
14247;SDS011;7208;49.826;6.004;2024-02-26T02:46:36;0.77;;;0.50;;
14247;SDS011;7208;49.826;6.004;2024-02-26T02:49:03;0.50;;;0.50;;
14247;SDS011;7208;49.826;6.004;2024-02-26T02:51:29;0.50;;;0.40;;
14247;SDS011;7208;49.826;6.004;2024-02-26T02:53:55;0.50;;;0.50;;
14247;SDS011;7208;49.826;6.004;2024-02-26T02:56:21;0.30;;;0.30;;
14247;SDS011;7208;49.826;6.004;2024-02-26T02:58:47;0.30;;;0.30;;
14247;SDS011;7208;49.826;6.004;2024-02-26T03:01:13;0.40;;;0.40;;
14247;SDS011;7208;49.826;6.004;2024-02-26T03:03:39;0.60;;;0.60;;
14247;SDS011;7208;49.826;6.004;2024-02-26T03:06:05;4.00;;;0.80;;
14247;SDS011;7208;49.826;6.004;2024-02-26T03:08:31;0.30;;;0.30;;
14247;SDS011;7208;49.826;6.004;2024-02-26T03:11:00;0.63;;;0.53;;
14247;SDS011;7208;49.826;6.004;2024-02-26T03:13:27;0.40;;;0.40;;
14247;SDS011;7208;49.826;6.004;2024-02-26T03:15:53;0.40;;;0.40;;
14247;SDS011;7208;49.826;6.004;2024-02-26T03:18:19;0.30;;;0.30;;
14247;SDS011;7208;49.826;6.004;2024-02-26T03:20:45;0.40;;;0.40;;
14247;SDS011;7208;49.826;6.004;2024-02-26T03:23:11;0.40;;;0.40;;
14247;SDS011;7208;49.826;6.004;2024-02-26T03:25:41;0.30;;;0.30;;
14247;SDS011;7208;49.826;6.004;2024-02-26T03:28:07;0.40;;;0.40;;
14247;SDS011;7208;49.826;6.004;2024-02-26T03:30:33;0.33;;;0.33;;
14247;SDS011;7208;49.826;6.004;2024-02-26T03:32:59;0.30;;;0.30;;
14247;SDS011;7208;49.826;6.004;2024-02-26T03:35:25;0.43;;;0.43;;
14247;SDS011;7208;49.826;6.004;2024-02-26T03:37:52;0.30;;;0.30;;
14247;SDS011;7208;49.826;6.004;2024-02-26T03:40:18;0.30;;;0.30;;
14247;SDS011;7208;49.826;6.004;2024-02-26T03:42:44;0.50;;;0.50;;
14247;SDS011;7208;49.826;6.004;2024-02-26T03:45:10;0.40;;;0.40;;
14247;SDS011;7208;49.826;6.004;2024-02-26T03:47:39;0.70;;;0.30;;
14247;SDS011;7208;49.826;6.004;2024-02-26T03:50:06;0.40;;;0.37;;
14247;SDS011;7208;49.826;6.004;2024-02-26T03:52:32;0.83;;;0.60;;
14247;SDS011;7208;49.826;6.004;2024-02-26T03:54:59;0.40;;;0.40;;
14247;SDS011;7208;49.826;6.004;2024-02-26T03:57:25;0.33;;;0.33;;
14247;SDS011;7208;49.826;6.004;2024-02-26T03:59:51;0.40;;;0.40;;
14247;SDS011;7208;49.826;6.004;2024-02-26T04:02:17;0.50;;;0.50;;
14247;SDS011;7208;49.826;6.004;2024-02-26T04:04:45;0.40;;;0.40;;
14247;SDS011;7208;49.826;6.004;2024-02-26T04:07:11;0.47;;;0.43;;
14247;SDS011;7208;49.826;6.004;2024-02-26T04:09:38;0.40;;;0.40;;
14247;SDS011;7208;49.826;6.004;2024-02-26T04:12:04;2.53;;;0.50;;
14247;SDS011;7208;49.826;6.004;2024-02-26T04:14:30;0.40;;;0.40;;
14247;SDS011;7208;49.826;6.004;2024-02-26T04:16:57;0.40;;;0.40;;
14247;SDS011;7208;49.826;6.004;2024-02-26T04:19:23;0.47;;;0.47;;
14247;SDS011;7208;49.826;6.004;2024-02-26T04:21:49;0.40;;;0.40;;
14247;SDS011;7208;49.826;6.004;2024-02-26T04:24:15;0.43;;;0.43;;
14247;SDS011;7208;49.826;6.004;2024-02-26T04:26:41;0.60;;;0.60;;
14247;SDS011;7208;49.826;6.004;2024-02-26T04:29:07;0.53;;;0.53;;
14247;SDS011;7208;49.826;6.004;2024-02-26T04:31:33;0.50;;;0.50;;
14247;SDS011;7208;49.826;6.004;2024-02-26T04:34:00;0.50;;;0.50;;
14247;SDS011;7208;49.826;6.004;2024-02-26T04:36:26;0.50;;;0.50;;
14247;SDS011;7208;49.826;6.004;2024-02-26T04:38:52;0.57;;;0.57;;
14247;SDS011;7208;49.826;6.004;2024-02-26T04:41:20;0.47;;;0.47;;
14247;SDS011;7208;49.826;6.004;2024-02-26T04:43:46;0.40;;;0.40;;
14247;SDS011;7208;49.826;6.004;2024-02-26T04:46:12;0.97;;;0.67;;
14247;SDS011;7208;49.826;6.004;2024-02-26T04:48:38;0.50;;;0.50;;
14247;SDS011;7208;49.826;6.004;2024-02-26T04:51:06;0.50;;;0.50;;
14247;SDS011;7208;49.826;6.004;2024-02-26T04:53:32;0.73;;;0.73;;
14247;SDS011;7208;49.826;6.004;2024-02-26T04:55:58;0.50;;;0.50;;
14247;SDS011;7208;49.826;6.004;2024-02-26T04:58:24;0.60;;;0.60;;
14247;SDS011;7208;49.826;6.004;2024-02-26T05:00:51;0.70;;;0.70;;
14247;SDS011;7208;49.826;6.004;2024-02-26T05:03:17;0.53;;;0.53;;
14247;SDS011;7208;49.826;6.004;2024-02-26T05:05:43;0.60;;;0.50;;
14247;SDS011;7208;49.826;6.004;2024-02-26T05:08:09;0.70;;;0.70;;
14247;SDS011;7208;49.826;6.004;2024-02-26T05:10:36;0.50;;;0.50;;
14247;SDS011;7208;49.826;6.004;2024-02-26T05:13:05;0.60;;;0.60;;
14247;SDS011;7208;49.826;6.004;2024-02-26T05:15:31;0.43;;;0.43;;
14247;SDS011;7208;49.826;6.004;2024-02-26T05:17:57;0.60;;;0.60;;
14247;SDS011;7208;49.826;6.004;2024-02-26T05:20:24;0.70;;;0.70;;
14247;SDS011;7208;49.826;6.004;2024-02-26T05:22:50;0.70;;;0.70;;
14247;SDS011;7208;49.826;6.004;2024-02-26T05:25:16;0.50;;;0.50;;
14247;SDS011;7208;49.826;6.004;2024-02-26T05:27:43;0.67;;;0.60;;
14247;SDS011;7208;49.826;6.004;2024-02-26T05:30:09;0.50;;;0.50;;
14247;SDS011;7208;49.826;6.004;2024-02-26T05:32:36;0.53;;;0.53;;
14247;SDS011;7208;49.826;6.004;2024-02-26T05:35:02;0.60;;;0.60;;
14247;SDS011;7208;49.826;6.004;2024-02-26T05:37:28;0.60;;;0.60;;
14247;SDS011;7208;49.826;6.004;2024-02-26T05:39:54;0.90;;;0.90;;
14247;SDS011;7208;49.826;6.004;2024-02-26T05:42:21;0.60;;;0.60;;
14247;SDS011;7208;49.826;6.004;2024-02-26T05:44:47;0.63;;;0.63;;
14247;SDS011;7208;49.826;6.004;2024-02-26T05:47:13;0.77;;;0.77;;
14247;SDS011;7208;49.826;6.004;2024-02-26T05:49:39;0.70;;;0.70;;
14247;SDS011;7208;49.826;6.004;2024-02-26T05:52:05;0.83;;;0.83;;
14247;SDS011;7208;49.826;6.004;2024-02-26T05:54:31;1.10;;;0.80;;
14247;SDS011;7208;49.826;6.004;2024-02-26T05:56:58;0.73;;;0.73;;
14247;SDS011;7208;49.826;6.004;2024-02-26T05:59:24;0.80;;;0.80;;
14247;SDS011;7208;49.826;6.004;2024-02-26T06:01:50;0.77;;;0.77;;
14247;SDS011;7208;49.826;6.004;2024-02-26T06:04:16;0.90;;;0.90;;
14247;SDS011;7208;49.826;6.004;2024-02-26T06:06:43;2.00;;;1.90;;
14247;SDS011;7208;49.826;6.004;2024-02-26T06:09:10;1.70;;;1.60;;
14247;SDS011;7208;49.826;6.004;2024-02-26T06:11:36;1.30;;;1.20;;
14247;SDS011;7208;49.826;6.004;2024-02-26T06:14:02;1.10;;;1.10;;
14247;SDS011;7208;49.826;6.004;2024-02-26T06:16:29;0.90;;;0.90;;
14247;SDS011;7208;49.826;6.004;2024-02-26T06:18:55;0.80;;;0.80;;
14247;SDS011;7208;49.826;6.004;2024-02-26T06:21:21;0.90;;;0.90;;
14247;SDS011;7208;49.826;6.004;2024-02-26T06:23:47;1.10;;;1.10;;
14247;SDS011;7208;49.826;6.004;2024-02-26T06:26:15;0.73;;;0.73;;
14247;SDS011;7208;49.826;6.004;2024-02-26T06:28:41;1.30;;;1.20;;
14247;SDS011;7208;49.826;6.004;2024-02-26T06:31:07;1.13;;;1.03;;
14247;SDS011;7208;49.826;6.004;2024-02-26T06:33:33;0.83;;;0.83;;
14247;SDS011;7208;49.826;6.004;2024-02-26T06:36:00;1.33;;;1.00;;
14247;SDS011;7208;49.826;6.004;2024-02-26T06:38:26;0.70;;;0.70;;
14247;SDS011;7208;49.826;6.004;2024-02-26T06:40:52;1.20;;;1.10;;
14247;SDS011;7208;49.826;6.004;2024-02-26T06:43:19;0.90;;;0.90;;
14247;SDS011;7208;49.826;6.004;2024-02-26T06:45:45;0.60;;;0.60;;
14247;SDS011;7208;49.826;6.004;2024-02-26T06:48:11;0.90;;;0.90;;
14247;SDS011;7208;49.826;6.004;2024-02-26T06:50:37;1.30;;;1.20;;
14247;SDS011;7208;49.826;6.004;2024-02-26T06:53:03;2.93;;;1.50;;
14247;SDS011;7208;49.826;6.004;2024-02-26T06:55:29;1.30;;;1.20;;
14247;SDS011;7208;49.826;6.004;2024-02-26T06:57:55;1.27;;;1.17;;
14247;SDS011;7208;49.826;6.004;2024-02-26T07:00:21;1.50;;;1.40;;
14247;SDS011;7208;49.826;6.004;2024-02-26T07:02:48;1.60;;;1.37;;
14247;SDS011;7208;49.826;6.004;2024-02-26T07:05:14;1.57;;;1.47;;
14247;SDS011;7208;49.826;6.004;2024-02-26T07:07:40;2.60;;;1.83;;
14247;SDS011;7208;49.826;6.004;2024-02-26T07:10:06;1.80;;;1.70;;
14247;SDS011;7208;49.826;6.004;2024-02-26T07:12:32;1.70;;;1.60;;
14247;SDS011;7208;49.826;6.004;2024-02-26T07:14:58;1.57;;;1.47;;
14247;SDS011;7208;49.826;6.004;2024-02-26T07:17:25;1.60;;;1.50;;
14247;SDS011;7208;49.826;6.004;2024-02-26T07:19:51;1.20;;;1.20;;
14247;SDS011;7208;49.826;6.004;2024-02-26T07:22:17;1.20;;;1.10;;
14247;SDS011;7208;49.826;6.004;2024-02-26T07:24:43;0.93;;;0.93;;
14247;SDS011;7208;49.826;6.004;2024-02-26T07:27:10;1.10;;;1.10;;
14247;SDS011;7208;49.826;6.004;2024-02-26T07:29:36;1.03;;;0.63;;
14247;SDS011;7208;49.826;6.004;2024-02-26T07:32:03;1.23;;;1.00;;
14247;SDS011;7208;49.826;6.004;2024-02-26T07:34:29;0.67;;;0.67;;
14247;SDS011;7208;49.826;6.004;2024-02-26T07:36:56;0.53;;;0.53;;
14247;SDS011;7208;49.826;6.004;2024-02-26T07:39:22;0.60;;;0.60;;
14247;SDS011;7208;49.826;6.004;2024-02-26T07:41:48;0.83;;;0.83;;
14247;SDS011;7208;49.826;6.004;2024-02-26T07:44:17;1.17;;;0.87;;
14247;SDS011;7208;49.826;6.004;2024-02-26T07:46:43;2.67;;;0.70;;
14247;SDS011;7208;49.826;6.004;2024-02-26T07:49:09;0.73;;;0.70;;
14247;SDS011;7208;49.826;6.004;2024-02-26T07:51:35;0.90;;;0.90;;
14247;SDS011;7208;49.826;6.004;2024-02-26T07:54:02;0.70;;;0.70;;
14247;SDS011;7208;49.826;6.004;2024-02-26T07:56:28;0.60;;;0.60;;
14247;SDS011;7208;49.826;6.004;2024-02-26T07:58:54;0.80;;;0.80;;
14247;SDS011;7208;49.826;6.004;2024-02-26T08:01:20;1.03;;;0.70;;
14247;SDS011;7208;49.826;6.004;2024-02-26T08:03:46;0.87;;;0.87;;
14247;SDS011;7208;49.826;6.004;2024-02-26T08:06:12;0.80;;;0.80;;
14247;SDS011;7208;49.826;6.004;2024-02-26T08:08:38;1.07;;;1.03;;
14247;SDS011;7208;49.826;6.004;2024-02-26T08:11:04;0.90;;;0.90;;
14247;SDS011;7208;49.826;6.004;2024-02-26T08:13:30;0.87;;;0.87;;
14247;SDS011;7208;49.826;6.004;2024-02-26T08:15:56;0.70;;;0.70;;
14247;SDS011;7208;49.826;6.004;2024-02-26T08:18:23;1.00;;;1.00;;
14247;SDS011;7208;49.826;6.004;2024-02-26T08:20:50;0.80;;;0.80;;
14247;SDS011;7208;49.826;6.004;2024-02-26T08:23:16;1.10;;;1.00;;
14247;SDS011;7208;49.826;6.004;2024-02-26T08:25:42;1.00;;;1.00;;
14247;SDS011;7208;49.826;6.004;2024-02-26T08:28:08;0.80;;;0.80;;
14247;SDS011;7208;49.826;6.004;2024-02-26T08:30:36;0.80;;;0.80;;
14247;SDS011;7208;49.826;6.004;2024-02-26T08:33:02;1.40;;;1.30;;
14247;SDS011;7208;49.826;6.004;2024-02-26T08:35:28;1.10;;;1.10;;
14247;SDS011;7208;49.826;6.004;2024-02-26T08:37:54;2.10;;;1.10;;
14247;SDS011;7208;49.826;6.004;2024-02-26T08:40:20;1.40;;;1.30;;
14247;SDS011;7208;49.826;6.004;2024-02-26T08:42:46;1.20;;;1.10;;
14247;SDS011;7208;49.826;6.004;2024-02-26T08:45:12;1.37;;;1.27;;
14247;SDS011;7208;49.826;6.004;2024-02-26T08:47:38;1.50;;;1.20;;
14247;SDS011;7208;49.826;6.004;2024-02-26T08:50:04;1.57;;;1.20;;
14247;SDS011;7208;49.826;6.004;2024-02-26T08:52:31;1.33;;;1.23;;
14247;SDS011;7208;49.826;6.004;2024-02-26T08:54:58;1.40;;;1.30;;
14247;SDS011;7208;49.826;6.004;2024-02-26T08:57:24;1.40;;;1.37;;
14247;SDS011;7208;49.826;6.004;2024-02-26T08:59:52;1.40;;;1.30;;
14247;SDS011;7208;49.826;6.004;2024-02-26T09:02:18;1.30;;;1.20;;
14247;SDS011;7208;49.826;6.004;2024-02-26T09:04:45;1.63;;;1.53;;
14247;SDS011;7208;49.826;6.004;2024-02-26T09:07:11;2.20;;;2.00;;
14247;SDS011;7208;49.826;6.004;2024-02-26T09:09:37;2.27;;;1.80;;
14247;SDS011;7208;49.826;6.004;2024-02-26T09:12:03;2.77;;;2.10;;
14247;SDS011;7208;49.826;6.004;2024-02-26T09:14:29;2.13;;;1.70;;
14247;SDS011;7208;49.826;6.004;2024-02-26T09:16:55;1.60;;;1.50;;
14247;SDS011;7208;49.826;6.004;2024-02-26T09:19:21;2.17;;;1.97;;
14247;SDS011;7208;49.826;6.004;2024-02-26T09:21:47;2.50;;;2.20;;
14247;SDS011;7208;49.826;6.004;2024-02-26T09:24:13;1.83;;;1.73;;
14247;SDS011;7208;49.826;6.004;2024-02-26T09:26:39;2.00;;;1.90;;
14247;SDS011;7208;49.826;6.004;2024-02-26T09:29:05;2.20;;;2.00;;
14247;SDS011;7208;49.826;6.004;2024-02-26T09:31:33;1.50;;;1.40;;
14247;SDS011;7208;49.826;6.004;2024-02-26T09:33:59;1.57;;;1.47;;
14247;SDS011;7208;49.826;6.004;2024-02-26T09:36:25;1.93;;;1.83;;
14247;SDS011;7208;49.826;6.004;2024-02-26T09:38:51;1.73;;;1.63;;
14247;SDS011;7208;49.826;6.004;2024-02-26T09:41:17;2.30;;;2.10;;
14247;SDS011;7208;49.826;6.004;2024-02-26T09:43:44;1.93;;;1.83;;
14247;SDS011;7208;49.826;6.004;2024-02-26T09:46:13;1.93;;;1.83;;
14247;SDS011;7208;49.826;6.004;2024-02-26T09:48:40;2.03;;;1.93;;
14247;SDS011;7208;49.826;6.004;2024-02-26T09:51:08;1.90;;;1.80;;
14247;SDS011;7208;49.826;6.004;2024-02-26T09:53:36;2.27;;;2.00;;
14247;SDS011;7208;49.826;6.004;2024-02-26T09:56:07;2.10;;;1.90;;
14247;SDS011;7208;49.826;6.004;2024-02-26T09:58:33;2.03;;;1.90;;
14247;SDS011;7208;49.826;6.004;2024-02-26T10:01:00;1.80;;;1.70;;
14247;SDS011;7208;49.826;6.004;2024-02-26T10:03:31;1.57;;;1.47;;
14247;SDS011;7208;49.826;6.004;2024-02-26T10:05:57;1.90;;;1.80;;
14247;SDS011;7208;49.826;6.004;2024-02-26T10:08:24;1.93;;;1.83;;
14247;SDS011;7208;49.826;6.004;2024-02-26T10:10:50;1.83;;;1.73;;
14247;SDS011;7208;49.826;6.004;2024-02-26T10:13:16;1.80;;;1.70;;
14247;SDS011;7208;49.826;6.004;2024-02-26T10:15:42;1.73;;;1.63;;
14247;SDS011;7208;49.826;6.004;2024-02-26T10:18:08;2.93;;;1.90;;
14247;SDS011;7208;49.826;6.004;2024-02-26T10:20:34;2.50;;;2.13;;
14247;SDS011;7208;49.826;6.004;2024-02-26T10:23:03;1.73;;;1.63;;
14247;SDS011;7208;49.826;6.004;2024-02-26T10:25:30;1.93;;;1.83;;
14247;SDS011;7208;49.826;6.004;2024-02-26T10:28:00;1.97;;;1.87;;
14247;SDS011;7208;49.826;6.004;2024-02-26T10:30:27;2.80;;;1.97;;
14247;SDS011;7208;49.826;6.004;2024-02-26T10:32:54;2.83;;;2.60;;
14247;SDS011;7208;49.826;6.004;2024-02-26T10:35:20;1.80;;;1.70;;
14247;SDS011;7208;49.826;6.004;2024-02-26T10:37:46;1.70;;;1.60;;
14247;SDS011;7208;49.826;6.004;2024-02-26T10:40:13;2.10;;;1.92;;
14247;SDS011;7208;49.826;6.004;2024-02-26T10:42:39;1.87;;;1.77;;
14247;SDS011;7208;49.826;6.004;2024-02-26T10:45:09;1.77;;;1.67;;
14247;SDS011;7208;49.826;6.004;2024-02-26T10:47:36;1.60;;;1.50;;
14247;SDS011;7208;49.826;6.004;2024-02-26T10:50:02;2.87;;;2.10;;
14247;SDS011;7208;49.826;6.004;2024-02-26T10:52:31;1.87;;;1.77;;
14247;SDS011;7208;49.826;6.004;2024-02-26T10:55:00;1.63;;;1.53;;
14247;SDS011;7208;49.826;6.004;2024-02-26T10:57:27;1.70;;;1.60;;
14247;SDS011;7208;49.826;6.004;2024-02-26T10:59:57;1.60;;;1.43;;
14247;SDS011;7208;49.826;6.004;2024-02-26T11:02:23;1.23;;;1.10;;
14247;SDS011;7208;49.826;6.004;2024-02-26T11:04:50;2.30;;;1.20;;
14247;SDS011;7208;49.826;6.004;2024-02-26T11:07:16;1.50;;;1.40;;
14247;SDS011;7208;49.826;6.004;2024-02-26T11:09:43;2.43;;;2.27;;
14247;SDS011;7208;49.826;6.004;2024-02-26T11:12:12;2.13;;;1.53;;
14247;SDS011;7208;49.826;6.004;2024-02-26T11:14:42;1.30;;;1.20;;
14247;SDS011;7208;49.826;6.004;2024-02-26T11:17:09;2.57;;;2.37;;
14247;SDS011;7208;49.826;6.004;2024-02-26T11:19:36;10.10;;;7.80;;
14247;SDS011;7208;49.826;6.004;2024-02-26T11:22:03;2.70;;;1.93;;
14247;SDS011;7208;49.826;6.004;2024-02-26T11:24:30;3.20;;;3.00;;
14247;SDS011;7208;49.826;6.004;2024-02-26T11:26:57;2.40;;;2.20;;
14247;SDS011;7208;49.826;6.004;2024-02-26T11:29:25;4.53;;;4.07;;
14247;SDS011;7208;49.826;6.004;2024-02-26T11:31:52;3.50;;;3.20;;
14247;SDS011;7208;49.826;6.004;2024-02-26T11:34:18;2.30;;;2.10;;
14247;SDS011;7208;49.826;6.004;2024-02-26T11:36:45;2.37;;;2.23;;
14247;SDS011;7208;49.826;6.004;2024-02-26T11:39:12;2.50;;;2.30;;
14247;SDS011;7208;49.826;6.004;2024-02-26T11:41:40;2.60;;;2.40;;
14247;SDS011;7208;49.826;6.004;2024-02-26T11:44:06;2.30;;;2.20;;
14247;SDS011;7208;49.826;6.004;2024-02-26T11:46:32;2.13;;;1.93;;
14247;SDS011;7208;49.826;6.004;2024-02-26T11:49:00;3.37;;;1.93;;
14247;SDS011;7208;49.826;6.004;2024-02-26T11:51:33;2.80;;;2.03;;
14247;SDS011;7208;49.826;6.004;2024-02-26T11:53:59;2.37;;;2.20;;
14247;SDS011;7208;49.826;6.004;2024-02-26T11:56:26;3.70;;;3.40;;
14247;SDS011;7208;49.826;6.004;2024-02-26T11:58:59;4.00;;;3.67;;
14247;SDS011;7208;49.826;6.004;2024-02-26T12:01:38;4.03;;;3.73;;
14247;SDS011;7208;49.826;6.004;2024-02-26T12:04:04;3.67;;;3.37;;
14247;SDS011;7208;49.826;6.004;2024-02-26T12:06:31;3.93;;;3.63;;
14247;SDS011;7208;49.826;6.004;2024-02-26T12:08:57;3.80;;;3.50;;
14247;SDS011;7208;49.826;6.004;2024-02-26T12:11:23;4.07;;;3.77;;
14247;SDS011;7208;49.826;6.004;2024-02-26T12:13:53;4.47;;;3.53;;
14247;SDS011;7208;49.826;6.004;2024-02-26T12:16:35;4.07;;;3.77;;
14247;SDS011;7208;49.826;6.004;2024-02-26T12:19:05;3.60;;;3.30;;
14247;SDS011;7208;49.826;6.004;2024-02-26T12:21:35;3.60;;;3.30;;
14247;SDS011;7208;49.826;6.004;2024-02-26T12:24:11;3.07;;;2.87;;
14247;SDS011;7208;49.826;6.004;2024-02-26T12:26:38;3.27;;;3.07;;
14247;SDS011;7208;49.826;6.004;2024-02-26T12:29:04;3.33;;;3.03;;
14247;SDS011;7208;49.826;6.004;2024-02-26T12:31:30;3.27;;;3.00;;
14247;SDS011;7208;49.826;6.004;2024-02-26T12:33:56;3.47;;;3.17;;
14247;SDS011;7208;49.826;6.004;2024-02-26T12:36:22;3.37;;;3.13;;
14247;SDS011;7208;49.826;6.004;2024-02-26T12:38:50;3.50;;;3.20;;
14247;SDS011;7208;49.826;6.004;2024-02-26T12:41:16;3.63;;;3.33;;
14247;SDS011;7208;49.826;6.004;2024-02-26T12:43:42;4.00;;;3.70;;
14247;SDS011;7208;49.826;6.004;2024-02-26T12:46:08;3.27;;;2.97;;
14247;SDS011;7208;49.826;6.004;2024-02-26T12:48:34;3.67;;;3.37;;
14247;SDS011;7208;49.826;6.004;2024-02-26T12:51:01;3.70;;;3.40;;
14247;SDS011;7208;49.826;6.004;2024-02-26T12:53:28;3.47;;;3.17;;
14247;SDS011;7208;49.826;6.004;2024-02-26T12:55:54;3.60;;;3.30;;
14247;SDS011;7208;49.826;6.004;2024-02-26T12:58:21;3.87;;;3.57;;
14247;SDS011;7208;49.826;6.004;2024-02-26T13:00:50;3.13;;;2.83;;
14247;SDS011;7208;49.826;6.004;2024-02-26T13:03:17;3.07;;;2.80;;
14247;SDS011;7208;49.826;6.004;2024-02-26T13:05:43;3.50;;;3.20;;
14247;SDS011;7208;49.826;6.004;2024-02-26T13:08:09;3.53;;;3.23;;
14247;SDS011;7208;49.826;6.004;2024-02-26T13:10:36;3.07;;;2.80;;
14247;SDS011;7208;49.826;6.004;2024-02-26T13:13:02;3.20;;;2.93;;
14247;SDS011;7208;49.826;6.004;2024-02-26T13:15:28;3.67;;;2.63;;
14247;SDS011;7208;49.826;6.004;2024-02-26T13:17:54;3.30;;;3.00;;
14247;SDS011;7208;49.826;6.004;2024-02-26T13:20:25;4.87;;;3.17;;
14247;SDS011;7208;49.826;6.004;2024-02-26T13:22:59;4.20;;;3.20;;
14247;SDS011;7208;49.826;6.004;2024-02-26T13:25:25;5.50;;;3.83;;
14247;SDS011;7208;49.826;6.004;2024-02-26T13:27:51;3.47;;;3.17;;
14247;SDS011;7208;49.826;6.004;2024-02-26T13:30:17;3.03;;;2.83;;
14247;SDS011;7208;49.826;6.004;2024-02-26T13:32:44;3.30;;;3.10;;
14247;SDS011;7208;49.826;6.004;2024-02-26T13:35:12;2.97;;;2.63;;
14247;SDS011;7208;49.826;6.004;2024-02-26T13:37:38;3.60;;;3.23;;
14247;SDS011;7208;49.826;6.004;2024-02-26T13:40:08;3.03;;;2.80;;
14247;SDS011;7208;49.826;6.004;2024-02-26T13:42:37;3.07;;;2.87;;
14247;SDS011;7208;49.826;6.004;2024-02-26T13:45:04;3.87;;;2.90;;
14247;SDS011;7208;49.826;6.004;2024-02-26T13:47:33;3.20;;;2.90;;
14247;SDS011;7208;49.826;6.004;2024-02-26T13:49:59;3.60;;;2.63;;
14247;SDS011;7208;49.826;6.004;2024-02-26T13:52:26;2.70;;;2.50;;
14247;SDS011;7208;49.826;6.004;2024-02-26T13:54:52;2.40;;;2.20;;
14247;SDS011;7208;49.826;6.004;2024-02-26T13:57:18;2.40;;;2.20;;
14247;SDS011;7208;49.826;6.004;2024-02-26T13:59:45;2.67;;;2.50;;
14247;SDS011;7208;49.826;6.004;2024-02-26T14:02:11;2.37;;;2.17;;
14247;SDS011;7208;49.826;6.004;2024-02-26T14:04:37;2.37;;;2.00;;
14247;SDS011;7208;49.826;6.004;2024-02-26T14:07:04;4.60;;;3.83;;
14247;SDS011;7208;49.826;6.004;2024-02-26T14:09:30;4.00;;;3.70;;
14247;SDS011;7208;49.826;6.004;2024-02-26T14:11:57;3.10;;;2.90;;
14247;SDS011;7208;49.826;6.004;2024-02-26T14:14:24;2.67;;;2.47;;
14247;SDS011;7208;49.826;6.004;2024-02-26T14:16:51;3.13;;;2.93;;
14247;SDS011;7208;49.826;6.004;2024-02-26T14:19:17;2.73;;;2.53;;
14247;SDS011;7208;49.826;6.004;2024-02-26T14:21:43;2.13;;;1.93;;
14247;SDS011;7208;49.826;6.004;2024-02-26T14:24:09;2.27;;;2.07;;
14247;SDS011;7208;49.826;6.004;2024-02-26T14:26:35;3.00;;;2.20;;
14247;SDS011;7208;49.826;6.004;2024-02-26T14:29:01;2.70;;;2.50;;
14247;SDS011;7208;49.826;6.004;2024-02-26T14:31:27;1.97;;;1.87;;
14247;SDS011;7208;49.826;6.004;2024-02-26T14:33:53;3.80;;;1.93;;
14247;SDS011;7208;49.826;6.004;2024-02-26T14:36:20;2.10;;;2.00;;
14247;SDS011;7208;49.826;6.004;2024-02-26T14:38:46;1.47;;;1.37;;
14247;SDS011;7208;49.826;6.004;2024-02-26T14:41:12;2.03;;;1.93;;
14247;SDS011;7208;49.826;6.004;2024-02-26T14:43:38;3.23;;;2.10;;
14247;SDS011;7208;49.826;6.004;2024-02-26T14:46:04;1.97;;;1.53;;
14247;SDS011;7208;49.826;6.004;2024-02-26T14:48:30;1.77;;;1.67;;
14247;SDS011;7208;49.826;6.004;2024-02-26T14:50:57;1.77;;;1.67;;
14247;SDS011;7208;49.826;6.004;2024-02-26T14:53:24;1.70;;;1.60;;
14247;SDS011;7208;49.826;6.004;2024-02-26T14:55:50;1.70;;;1.60;;